createdAt,value
2018-12-29T00:00:52.348Z,92155.14
2018-12-29T00:03:42.099Z,92155.36
2018-12-29T00:06:30.914Z,92162.83
2018-12-29T00:09:19.631Z,92167.63
2018-12-29T00:12:08.701Z,92162.02
2018-12-29T00:14:58.775Z,92168.41
2018-12-29T00:17:48.796Z,92177.34
2018-12-29T00:20:38.396Z,92166.95
2018-12-29T00:23:28.568Z,92174.81
2018-12-29T00:26:17.239Z,92173.73
2018-12-29T00:29:07.139Z,92175.82
2018-12-29T00:31:56.572Z,92164.88
2018-12-29T00:34:45.493Z,92161.17
2018-12-29T00:37:34.839Z,92175.72
2018-12-29T00:40:24.116Z,92183.23
2018-12-29T00:43:13.309Z,92153.02
2018-12-29T00:46:03.671Z,92170.12
2018-12-29T00:48:53.097Z,92176.83
2018-12-29T00:51:42.522Z,92169.64
2018-12-29T00:54:35.678Z,92169.68
2018-12-29T00:57:24.566Z,92176.77
2018-12-29T01:00:13.845Z,92171.61
2018-12-29T01:03:03.821Z,92177.30
2018-12-29T01:05:53.109Z,92173.42
2018-12-29T01:08:42.770Z,92180.37
2018-12-29T01:11:32.332Z,92172.86
2018-12-29T01:14:21.571Z,92166.01
2018-12-29T01:17:10.659Z,92173.69
2018-12-29T01:19:59.697Z,92182.84
2018-12-29T01:22:49.674Z,92179.45
2018-12-29T01:25:39.650Z,92188.80
2018-12-29T01:28:29.446Z,92185.95
2018-12-29T01:31:18.889Z,92183.59
2018-12-29T01:34:07.749Z,92190.31
2018-12-29T01:36:57.222Z,92185.61
2018-12-29T01:39:46.584Z,92184.68
2018-12-29T01:42:37.228Z,92173.11
2018-12-29T01:45:26.915Z,92179.14
2018-12-29T01:48:16.816Z,92168.34
2018-12-29T01:51:06.589Z,92162.94
2018-12-29T01:53:55.192Z,92163.75
2018-12-29T01:56:45.944Z,92168.36
2018-12-29T01:59:36.041Z,92157.37
2018-12-29T02:02:25.419Z,92153.69
2018-12-29T02:05:15.769Z,92137.34
2018-12-29T02:08:05.172Z,92139.45
2018-12-29T02:10:54.795Z,92133.96
2018-12-29T02:13:44.331Z,92135.55
2018-12-29T02:16:33.824Z,92132.41
2018-12-29T02:19:23.068Z,92135.45
2018-12-29T02:22:12.622Z,92128.74
2018-12-29T02:25:02.359Z,92141.31
2018-12-29T02:27:51.410Z,92128.74
2018-12-29T02:30:40.819Z,92129.25
2018-12-29T02:33:30.223Z,92135.01
2018-12-29T02:36:19.678Z,92148.14
2018-12-29T02:39:09.205Z,92144.72
2018-12-29T02:41:58.616Z,92138.70
2018-12-29T02:44:48.073Z,92145.14
2018-12-29T02:47:37.868Z,92145.82
2018-12-29T02:50:27.165Z,92148.52
2018-12-29T02:53:16.633Z,92149.00
2018-12-29T02:56:06.268Z,92154.17
2018-12-29T02:58:56.023Z,92153.73
2018-12-29T03:01:45.354Z,92151.19
2018-12-29T03:04:35.864Z,92157.90
2018-12-29T03:07:26.087Z,92156.13
2018-12-29T03:10:15.188Z,92150.52
2018-12-29T03:13:05.242Z,92147.77
2018-12-29T03:15:54.808Z,92141.13
2018-12-29T03:18:44.674Z,92143.23
2018-12-29T03:21:34.042Z,92139.34
2018-12-29T03:24:22.995Z,92140.51
2018-12-29T03:27:13.202Z,92143.91
2018-12-29T03:30:03.652Z,92147.95
2018-12-29T03:32:52.949Z,92138.31
2018-12-29T03:35:42.639Z,92135.17
2018-12-29T03:38:32.005Z,92135.48
2018-12-29T03:41:21.387Z,92132.06
2018-12-29T03:44:10.632Z,92134.67
2018-12-29T03:47:00.313Z,92132.77
2018-12-29T03:49:50.041Z,92138.00
2018-12-29T03:52:38.979Z,92138.58
2018-12-29T03:55:33.165Z,92149.62
2018-12-29T03:58:23.248Z,92162.24
2018-12-29T04:01:13.047Z,92171.16
2018-12-29T04:04:02.807Z,92169.02
2018-12-29T04:06:52.503Z,92178.45
2018-12-29T04:09:42.189Z,92179.66
2018-12-29T04:12:35.328Z,92186.43
2018-12-29T04:15:24.734Z,92173.00
2018-12-29T04:18:14.517Z,92175.06
2018-12-29T04:21:03.871Z,92166.52
2018-12-29T04:23:53.178Z,92173.87
2018-12-29T04:26:42.781Z,92172.38
2018-12-29T04:29:33.155Z,92179.55
2018-12-29T04:32:22.668Z,92172.59
2018-12-29T04:35:11.762Z,92173.62
2018-12-29T04:38:01.114Z,92175.53
2018-12-29T04:40:50.434Z,92176.72
2018-12-29T04:43:40.471Z,92172.93
2018-12-29T04:46:50.710Z,92185.63
2018-12-29T04:49:49.618Z,92168.98
2018-12-29T04:52:39.183Z,92176.50
2018-12-29T04:55:29.696Z,92174.38
2018-12-29T04:58:20.085Z,92173.14
2018-12-29T05:01:25.848Z,92180.71
2018-12-29T05:04:15.517Z,92192.25
2018-12-29T05:07:05.091Z,92197.48
2018-12-29T05:09:54.557Z,92198.76
2018-12-29T05:12:43.820Z,92201.68
2018-12-29T05:15:32.904Z,92206.55
2018-12-29T05:18:22.165Z,92208.59
2018-12-29T05:21:11.537Z,92195.09
2018-12-29T05:24:04.136Z,92194.28
2018-12-29T05:26:53.448Z,92196.77
2018-12-29T05:29:42.400Z,92196.95
2018-12-29T05:32:31.766Z,92205.16
2018-12-29T05:35:21.440Z,92199.00
2018-12-29T05:38:11.369Z,92195.81
2018-12-29T05:41:00.410Z,92203.49
2018-12-29T05:43:50.805Z,92200.44
2018-12-29T05:46:40.133Z,92217.43
2018-12-29T05:49:29.502Z,92214.16
2018-12-29T05:52:19.268Z,92229.73
2018-12-29T05:55:08.792Z,92234.17
2018-12-29T05:57:58.674Z,92236.02
2018-12-29T06:00:48.814Z,92229.35
2018-12-29T06:03:38.126Z,92238.22
2018-12-29T06:06:27.695Z,92238.66
2018-12-29T06:09:17.392Z,92244.81
2018-12-29T06:12:06.800Z,92249.00
2018-12-29T06:14:57.704Z,92246.03
2018-12-29T06:17:46.864Z,92251.16
2018-12-29T06:20:36.474Z,92263.63
2018-12-29T06:23:25.735Z,92250.55
2018-12-29T06:26:15.868Z,92261.69
2018-12-29T06:29:04.876Z,92262.31
2018-12-29T06:31:54.414Z,92251.66
2018-12-29T06:34:43.807Z,92262.30
2018-12-29T06:37:33.672Z,92270.75
2018-12-29T06:40:22.991Z,92269.00
2018-12-29T06:43:12.987Z,92274.53
2018-12-29T06:46:02.065Z,92264.19
2018-12-29T06:48:52.562Z,92276.66
2018-12-29T06:51:42.161Z,92276.34
2018-12-29T06:54:31.442Z,92278.90
2018-12-29T06:57:21.212Z,92266.63
2018-12-29T07:00:10.666Z,92265.47
2018-12-29T07:02:59.949Z,92276.32
2018-12-29T07:05:49.514Z,92271.80
2018-12-29T07:08:39.604Z,92265.75
2018-12-29T07:11:28.484Z,92272.41
2018-12-29T07:14:18.839Z,92268.42
2018-12-29T07:17:09.211Z,92274.46
2018-12-29T07:19:59.482Z,92278.59
2018-12-29T07:22:48.729Z,92288.85
2018-12-29T07:25:38.270Z,92288.85
2018-12-29T07:28:27.195Z,92284.29
2018-12-29T07:31:16.704Z,92280.17
2018-12-29T07:34:06.849Z,92271.48
2018-12-29T07:36:56.496Z,92281.80
2018-12-29T07:39:46.121Z,92285.05
2018-12-29T07:42:36.210Z,92276.44
2018-12-29T07:45:25.627Z,92282.58
2018-12-29T07:48:14.978Z,92283.33
2018-12-29T07:51:03.923Z,92280.19
2018-12-29T07:53:53.699Z,92272.09
2018-12-29T07:56:43.427Z,92287.37
2018-12-29T07:59:34.706Z,92286.53
2018-12-29T08:02:24.664Z,92294.17
2018-12-29T08:05:14.342Z,92296.25
2018-12-29T08:08:09.362Z,92284.64
2018-12-29T08:10:58.754Z,92299.89
2018-12-29T08:13:48.791Z,92301.48
2018-12-29T08:16:37.678Z,92307.39
2018-12-29T08:19:27.124Z,92311.72
2018-12-29T08:22:16.353Z,92298.45
2018-12-29T08:25:07.301Z,92311.33
2018-12-29T08:27:56.285Z,92303.04
2018-12-29T08:30:49.896Z,92306.16
2018-12-29T08:33:44.095Z,92313.27
2018-12-29T08:36:33.400Z,92304.97
2018-12-29T08:39:23.184Z,92309.02
2018-12-29T08:42:12.505Z,92314.00
2018-12-29T08:45:02.310Z,92303.06
2018-12-29T08:47:52.073Z,92312.59
2018-12-29T08:50:42.669Z,92304.95
2018-12-29T08:53:34.402Z,92308.70
2018-12-29T08:56:24.704Z,92307.29
2018-12-29T08:59:14.190Z,92311.39
2018-12-29T09:02:03.707Z,92306.80
2018-12-29T09:04:54.408Z,92297.81
2018-12-29T09:07:43.883Z,92303.45
2018-12-29T09:10:35.622Z,92306.30
2018-12-29T09:13:26.946Z,92307.00
2018-12-29T09:16:17.094Z,92300.81
2018-12-29T09:19:10.303Z,92309.48
2018-12-29T09:22:03.006Z,92304.67
2018-12-29T09:24:52.878Z,92300.70
2018-12-29T09:27:42.281Z,92296.00
2018-12-29T09:30:55.890Z,92285.41
2018-12-29T09:33:45.327Z,92292.38
2018-12-29T09:36:40.035Z,92295.83
2018-12-29T09:39:29.675Z,92296.83
2018-12-29T09:42:18.645Z,92285.11
2018-12-29T09:45:07.827Z,92293.73
2018-12-29T09:48:04.372Z,92294.92
2018-12-29T09:50:53.627Z,92295.36
2018-12-29T09:53:43.039Z,92298.48
2018-12-29T09:56:32.600Z,92287.52
2018-12-29T09:59:22.135Z,92293.93
2018-12-29T10:02:11.990Z,92290.76
2018-12-29T10:05:01.566Z,92290.18
2018-12-29T10:07:51.352Z,92292.66
2018-12-29T10:10:40.874Z,92280.41
2018-12-29T10:13:30.712Z,92287.52
2018-12-29T10:16:20.119Z,92274.03
2018-12-29T10:19:09.768Z,92291.55
2018-12-29T10:21:59.429Z,92266.63
2018-12-29T10:24:48.971Z,92269.14
2018-12-29T10:27:38.310Z,92270.75
2018-12-29T10:30:28.348Z,92279.83
2018-12-29T10:33:17.306Z,92281.49
2018-12-29T10:36:06.691Z,92275.33
2018-12-29T10:38:56.842Z,92271.87
2018-12-29T10:41:46.872Z,92270.17
2018-12-29T10:44:36.049Z,92261.48
2018-12-29T10:47:25.472Z,92270.85
2018-12-29T10:50:18.132Z,92256.28
2018-12-29T10:53:07.380Z,92260.42
2018-12-29T10:55:57.141Z,92260.94
2018-12-29T10:58:46.660Z,92248.41
2018-12-29T11:01:43.258Z,92255.59
2018-12-29T11:04:35.282Z,92257.21
2018-12-29T11:07:24.663Z,92258.34
2018-12-29T11:10:13.796Z,92260.55
2018-12-29T11:13:07.020Z,92261.91
2018-12-29T11:15:57.112Z,92266.66
2018-12-29T11:18:48.376Z,92259.53
2018-12-29T11:21:38.871Z,92255.20
2018-12-29T11:24:28.313Z,92261.53
2018-12-29T11:27:17.711Z,92266.84
2018-12-29T11:30:10.388Z,92259.30
2018-12-29T11:32:59.605Z,92252.66
2018-12-29T11:35:49.009Z,92262.35
2018-12-29T11:38:39.544Z,92262.45
2018-12-29T11:41:28.685Z,92264.87
2018-12-29T11:44:18.683Z,92266.98
2018-12-29T11:47:08.116Z,92261.11
2018-12-29T11:49:57.738Z,92272.88
2018-12-29T11:52:46.950Z,92279.05
2018-12-29T11:55:37.259Z,92265.09
2018-12-29T11:58:27.161Z,92274.31
2018-12-29T12:01:16.520Z,92270.94
2018-12-29T12:04:06.468Z,92274.47
2018-12-29T12:06:59.774Z,92284.27
2018-12-29T12:09:48.607Z,92285.42
2018-12-29T12:12:37.466Z,92278.53
2018-12-29T12:15:26.414Z,92291.48
2018-12-29T12:18:17.134Z,92271.79
2018-12-29T12:21:06.688Z,92289.47
2018-12-29T12:23:55.907Z,92285.52
2018-12-29T12:26:51.081Z,92296.19
2018-12-29T12:29:41.646Z,92292.61
2018-12-29T12:32:30.760Z,92301.67
2018-12-29T12:35:20.052Z,92298.77
2018-12-29T12:38:09.631Z,92304.00
2018-12-29T12:40:59.400Z,92301.24
2018-12-29T12:43:50.826Z,92300.86
2018-12-29T12:46:40.816Z,92307.27
2018-12-29T12:49:30.550Z,92311.20
2018-12-29T12:52:11.390Z,92316.20
2018-12-29T12:54:42.391Z,92319.49
2018-12-29T12:57:14.102Z,92319.06
2018-12-29T12:59:45.542Z,92315.30
2018-12-29T13:02:17.024Z,92322.66
2018-12-29T13:04:48.899Z,92334.80
2018-12-29T13:07:20.477Z,92333.64
2018-12-29T13:09:51.457Z,92329.97
2018-12-29T13:12:24.438Z,92332.45
2018-12-29T13:14:56.486Z,92348.74
2018-12-29T13:17:30.588Z,92341.21
2018-12-29T13:20:02.245Z,92342.80
2018-12-29T13:22:33.360Z,92342.39
2018-12-29T13:25:04.863Z,92345.66
2018-12-29T13:27:35.779Z,92340.62
2018-12-29T13:30:07.954Z,92340.24
2018-12-29T13:32:38.926Z,92330.02
2018-12-29T13:35:10.505Z,92324.87
2018-12-29T13:37:41.580Z,92337.34
2018-12-29T13:40:12.775Z,92347.86
2018-12-29T13:42:43.992Z,92355.67
2018-12-29T13:45:15.426Z,92356.75
2018-12-29T13:47:47.164Z,92362.33
2018-12-29T13:50:18.221Z,92367.65
2018-12-29T13:52:49.172Z,92379.13
2018-12-29T13:55:20.728Z,92371.55
2018-12-29T13:57:51.983Z,92365.20
2018-12-29T14:00:23.409Z,92372.91
2018-12-29T14:02:55.647Z,92362.66
2018-12-29T14:05:27.500Z,92371.77
2018-12-29T14:08:01.510Z,92363.27
2018-12-29T14:10:32.531Z,92361.92
2018-12-29T14:13:03.606Z,92361.09
2018-12-29T14:15:34.969Z,92366.58
2018-12-29T14:18:05.886Z,92378.14
2018-12-29T14:20:37.386Z,92383.44
2018-12-29T14:23:08.364Z,92397.45
2018-12-29T14:25:40.260Z,92398.06
2018-12-29T14:28:12.288Z,92395.48
2018-12-29T14:30:43.223Z,92407.58
2018-12-29T14:33:14.204Z,92410.64
2018-12-29T14:35:45.226Z,92408.14
2018-12-29T14:38:17.131Z,92410.10
2018-12-29T14:40:48.140Z,92402.50
2018-12-29T14:43:19.164Z,92416.91
2018-12-29T14:45:50.218Z,92412.14
2018-12-29T14:48:21.744Z,92414.41
2018-12-29T14:50:53.028Z,92421.58
2018-12-29T14:53:24.405Z,92419.93
2018-12-29T14:55:55.354Z,92424.92
2018-12-29T14:58:26.738Z,92418.06
2018-12-29T15:00:57.656Z,92423.02
2018-12-29T15:03:29.263Z,92423.81
2018-12-29T15:06:00.331Z,92419.90
2018-12-29T15:08:31.833Z,92417.85
2018-12-29T15:11:03.147Z,92418.06
2018-12-29T15:13:37.502Z,92421.35
2018-12-29T15:16:08.970Z,92429.53
2018-12-29T15:18:44.037Z,92430.03
2018-12-29T15:21:12.794Z,92434.36
2018-12-29T15:23:43.809Z,92443.31
2018-12-29T15:26:15.400Z,92441.66
2018-12-29T15:28:46.681Z,92442.89
2018-12-29T15:31:17.956Z,92455.28
2018-12-29T15:33:49.133Z,92458.10
2018-12-29T15:36:21.465Z,92461.86
2018-12-29T15:38:52.820Z,92470.16
2018-12-29T15:41:25.784Z,92475.34
2018-12-29T15:43:57.440Z,92478.11
2018-12-29T15:46:28.588Z,92476.02
2018-12-29T15:49:02.751Z,92475.91
2018-12-29T15:51:33.682Z,92479.88
2018-12-29T15:54:04.984Z,92479.49
2018-12-29T15:56:37.781Z,92482.48
2018-12-29T15:59:08.828Z,92483.36
2018-12-29T16:01:40.241Z,92486.02
2018-12-29T16:04:11.340Z,92489.91
2018-12-29T16:06:42.377Z,92493.50
2018-12-29T16:09:13.944Z,92498.86
2018-12-29T16:11:45.767Z,92503.51
2018-12-29T16:14:17.394Z,92506.80
2018-12-29T16:16:49.051Z,92510.80
2018-12-29T16:19:20.552Z,92501.08
2018-12-29T16:21:51.594Z,92505.44
2018-12-29T16:24:23.181Z,92505.66
2018-12-29T16:26:54.647Z,92504.83
2018-12-29T16:29:26.111Z,92518.92
2018-12-29T16:31:58.111Z,92516.87
2018-12-29T16:34:29.222Z,92519.91
2018-12-29T16:37:00.538Z,92525.72
2018-12-29T16:39:32.073Z,92536.22
2018-12-29T16:42:03.302Z,92537.70
2018-12-29T16:44:34.779Z,92539.08
2018-12-29T16:47:05.962Z,92538.02
2018-12-29T16:49:38.621Z,92541.20
2018-12-29T16:52:09.949Z,92542.34
2018-12-29T16:54:42.688Z,92543.59
2018-12-29T16:57:13.919Z,92547.26
2018-12-29T16:59:45.799Z,92543.73
2018-12-29T17:02:18.272Z,92548.66
2018-12-29T17:04:49.709Z,92557.41
2018-12-29T17:07:21.720Z,92562.95
2018-12-29T17:09:53.259Z,92567.60
2018-12-29T17:12:27.896Z,92570.04
2018-12-29T17:14:58.978Z,92566.59
2018-12-29T17:17:29.886Z,92573.33
2018-12-29T17:20:00.936Z,92570.30
2018-12-29T17:22:32.134Z,92566.35
2018-12-29T17:25:03.153Z,92563.09
2018-12-29T17:27:34.880Z,92573.59
2018-12-29T17:30:06.492Z,92566.20
2018-12-29T17:32:38.109Z,92571.16
2018-12-29T17:35:09.699Z,92575.69
2018-12-29T17:37:40.715Z,92575.20
2018-12-29T17:40:12.169Z,92578.91
2018-12-29T17:42:43.410Z,92579.84
2018-12-29T17:45:16.676Z,92585.52
2018-12-29T17:47:48.868Z,92581.25
2018-12-29T17:50:25.563Z,92574.05
2018-12-29T17:52:56.747Z,92576.73
2018-12-29T17:55:28.255Z,92576.03
2018-12-29T17:57:59.870Z,92573.41
2018-12-29T18:00:31.220Z,92570.39
2018-12-29T18:03:02.223Z,92576.32
2018-12-29T18:05:34.647Z,92581.78
2018-12-29T18:08:06.652Z,92578.48
2018-12-29T18:10:38.122Z,92567.91
2018-12-29T18:13:14.255Z,92572.98
2018-12-29T18:15:48.380Z,92573.81
2018-12-29T18:18:21.226Z,92580.56
2018-12-29T18:20:53.036Z,92580.78
2018-12-29T18:23:33.516Z,92580.02
2018-12-29T18:26:18.249Z,92579.89
2018-12-29T18:28:57.248Z,92584.41
2018-12-29T18:31:34.834Z,92582.55
2018-12-29T18:34:12.411Z,92579.94
2018-12-29T18:36:54.352Z,92580.28
2018-12-29T18:39:31.178Z,92579.05
2018-12-29T18:42:17.268Z,92580.59
2018-12-29T18:44:58.754Z,92575.78
2018-12-29T18:47:39.494Z,92584.09
2018-12-29T18:50:21.314Z,92589.99
2018-12-29T18:53:01.859Z,92589.98
2018-12-29T18:55:49.602Z,92591.43
2018-12-29T18:58:26.001Z,92591.42
2018-12-29T19:01:00.670Z,92596.00
2018-12-29T19:03:36.114Z,92596.48
2018-12-29T19:06:10.232Z,92594.44
2018-12-29T19:08:43.358Z,92592.87
2018-12-29T19:11:18.928Z,92592.03
2018-12-29T19:13:52.463Z,92589.86
2018-12-29T19:16:29.292Z,92587.77
2018-12-29T19:19:04.660Z,92596.19
2018-12-29T19:21:37.133Z,92601.64
2018-12-29T19:24:09.226Z,92604.89
2018-12-29T19:26:41.581Z,92607.30
2018-12-29T19:29:13.011Z,92614.87
2018-12-29T19:31:45.334Z,92612.95
2018-12-29T19:34:17.358Z,92606.94
2018-12-29T19:36:50.237Z,92605.13
2018-12-29T19:39:21.821Z,92609.45
2018-12-29T19:41:57.320Z,92609.22
2018-12-29T19:44:29.150Z,92612.34
2018-12-29T19:47:00.960Z,92614.38
2018-12-29T19:49:32.432Z,92612.59
2018-12-29T19:52:04.332Z,92612.46
2018-12-29T19:54:35.505Z,92609.59
2018-12-29T19:57:07.329Z,92608.37
2018-12-29T19:59:39.023Z,92609.33
2018-12-29T20:02:13.463Z,92609.94
2018-12-29T20:04:45.139Z,92609.34
2018-12-29T20:07:17.576Z,92608.86
2018-12-29T20:09:48.839Z,92602.73
2018-12-29T20:12:20.302Z,92602.25
2018-12-29T20:14:51.968Z,92595.52
2018-12-29T20:17:26.304Z,92598.41
2018-12-29T20:20:01.549Z,92598.16
2018-12-29T20:22:30.586Z,92596.84
2018-12-29T20:25:02.114Z,92592.63
2018-12-29T20:27:36.579Z,92590.38
2018-12-29T20:30:09.854Z,92591.70
2018-12-29T20:32:40.855Z,92597.05
2018-12-29T20:35:11.816Z,92592.54
2018-12-29T20:37:43.032Z,92590.14
2018-12-29T20:40:15.254Z,92594.75
2018-12-29T20:42:46.765Z,92593.11
2018-12-29T20:45:17.949Z,92581.33
2018-12-29T20:47:48.925Z,92579.52
2018-12-29T20:50:20.068Z,92577.85
2018-12-29T20:52:51.529Z,92577.13
2018-12-29T20:55:23.190Z,92579.30
2018-12-29T20:57:54.664Z,92587.70
2018-12-29T21:00:44.635Z,92596.12
2018-12-29T21:03:34.662Z,92584.94
2018-12-29T21:06:24.761Z,92594.44
2018-12-29T21:09:14.607Z,92602.13
2018-12-29T21:12:05.575Z,92597.08
2018-12-29T21:14:55.517Z,92603.09
2018-12-29T21:17:46.241Z,92598.52
2018-12-29T21:20:36.495Z,92609.70
2018-12-29T21:23:26.488Z,92607.55
2018-12-29T21:26:16.880Z,92609.56
2018-12-29T21:29:06.138Z,92612.21
2018-12-29T21:31:55.316Z,92603.44
2018-12-29T21:34:44.887Z,92604.38
2018-12-29T21:37:36.516Z,92601.02
2018-12-29T21:40:26.284Z,92604.48
2018-12-29T21:43:15.998Z,92594.02
2018-12-29T21:46:05.494Z,92585.52
2018-12-29T21:49:00.502Z,92590.55
2018-12-29T21:51:53.215Z,92590.06
2018-12-29T21:54:54.048Z,92595.59
2018-12-29T21:57:50.159Z,92589.09
2018-12-29T22:01:00.889Z,92586.69
2018-12-29T22:03:59.523Z,92589.56
2018-12-29T22:07:06.220Z,92589.66
2018-12-29T22:09:57.368Z,92585.14
2018-12-29T22:13:03.581Z,92588.11
2018-12-29T22:16:05.158Z,92589.66
2018-12-29T22:19:02.387Z,92584.77
2018-12-29T22:21:55.092Z,92583.80
2018-12-29T22:24:53.080Z,92580.41
2018-12-29T22:27:51.898Z,92576.81
2018-12-29T22:31:01.729Z,92583.08
2018-12-29T22:33:59.050Z,92573.22
2018-12-29T22:37:05.231Z,92578.16
2018-12-29T22:39:55.937Z,92576.83
2018-12-29T22:42:48.088Z,92578.23
2018-12-29T22:45:39.212Z,92580.89
2018-12-29T22:48:36.282Z,92579.09
2018-12-29T22:51:31.296Z,92572.94
2018-12-29T22:54:26.983Z,92571.24
2018-12-29T22:57:18.419Z,92572.33
2018-12-29T23:00:13.885Z,92576.03
2018-12-29T23:03:09.672Z,92566.22
2018-12-29T23:06:08.289Z,92569.91
2018-12-29T23:09:00.454Z,92563.06
2018-12-29T23:12:00.939Z,92558.86
2018-12-29T23:14:54.510Z,92561.45
2018-12-29T23:17:49.093Z,92562.68
2018-12-29T23:20:48.817Z,92556.69
2018-12-29T23:23:35.488Z,92558.81
2018-12-29T23:26:24.998Z,92548.31
2018-12-29T23:29:14.501Z,92549.11
2018-12-29T23:32:04.343Z,92549.24
2018-12-29T23:34:59.244Z,92542.31
2018-12-29T23:37:48.801Z,92538.23
2018-12-29T23:40:39.851Z,92546.56
2018-12-29T23:43:29.709Z,92543.48
2018-12-29T23:46:18.711Z,92548.06
2018-12-29T23:49:08.528Z,92545.13
2018-12-29T23:51:58.532Z,92554.17
2018-12-29T23:54:47.970Z,92551.08
2018-12-29T23:57:38.214Z,92556.85
